Time;durP1;ratioP1;P1;durP2;ratioP2;P2;SDS_P1;SDS_P2;PMS_P1;PMS_P2;Temp;Humidity;BMP_temperature;BMP_pressure;BME280_temperature;BME280_humidity;BME280_pressure;Samples;Min_cycle;Max_cycle;Signal;HPM_P1;HPM_P2
2023/09/10 00:00:42;;;;;;;11.85;6.28;;;20.50;99.90;;;;;;5039739;28;20036;-73
2023/09/10 00:03:28;;;;;;;12.43;5.78;;;20.50;99.90;;;;;;5019859;28;20103;-72
2023/09/10 00:06:14;;;;;;;10.88;5.38;;;20.40;99.90;;;;;;5030099;28;20631;-72
2023/09/10 00:09:00;;;;;;;15.70;6.25;;;20.40;99.90;;;;;;5018698;28;20051;-73
2023/09/10 00:11:46;;;;;;;14.40;7.28;;;20.30;99.90;;;;;;5031793;28;20645;-72
2023/09/10 00:14:32;;;;;;;9.93;6.13;;;20.30;99.90;;;;;;5034112;28;20793;-72
2023/09/10 00:17:18;;;;;;;7.88;6.10;;;20.30;99.90;;;;;;5031883;28;20037;-72
2023/09/10 00:20:06;;;;;;;13.25;6.60;;;20.20;99.90;;;;;;5035171;28;20111;-72
2023/09/10 00:22:52;;;;;;;;;;;20.10;99.90;;;;;;5035680;28;20045;-72
2023/09/10 00:25:38;;;;;;;10.73;6.43;;;20.10;99.90;;;;;;5050458;28;19970;-72
2023/09/10 00:28:24;;;;;;;10.50;6.30;;;20.10;99.90;;;;;;5043160;28;20520;-73
2023/09/10 00:31:10;;;;;;;10.60;6.60;;;20.10;99.90;;;;;;5033169;28;20052;-73
2023/09/10 00:33:56;;;;;;;9.13;6.03;;;20.10;99.90;;;;;;5047509;28;20072;-73
2023/09/10 00:36:42;;;;;;;10.48;6.22;;;20.10;99.90;;;;;;5006128;28;20156;-73
2023/09/10 00:39:28;;;;;;;10.07;6.80;;;20.00;99.90;;;;;;5039026;28;20056;-71
2023/09/10 00:42:14;;;;;;;9.15;5.80;;;20.00;99.90;;;;;;5033783;28;20044;-72
2023/09/10 00:45:00;;;;;;;12.43;6.63;;;19.90;99.90;;;;;;5039794;28;20048;-72
2023/09/10 00:47:46;;;;;;;8.23;6.60;;;19.80;99.90;;;;;;5045794;28;20047;-72
2023/09/10 00:50:32;;;;;;;10.48;6.95;;;19.80;99.90;;;;;;5006074;28;20053;-72
2023/09/10 00:53:18;;;;;;;14.02;6.97;;;19.70;99.90;;;;;;5031201;28;20044;-72
2023/09/10 00:56:04;;;;;;;7.97;6.47;;;19.60;99.90;;;;;;5017440;28;20615;-72
2023/09/10 00:58:51;;;;;;;9.95;6.47;;;19.60;99.90;;;;;;5022401;28;20037;-72
2023/09/10 01:01:38;;;;;;;8.70;6.47;;;19.60;99.90;;;;;;5038484;28;20140;-72
2023/09/10 01:04:24;;;;;;;9.30;6.80;;;19.50;99.90;;;;;;5036571;28;20110;-72
2023/09/10 01:07:09;;;;;;;10.77;6.85;;;19.50;99.90;;;;;;5030539;28;20661;-72
2023/09/10 01:09:55;;;;;;;9.80;6.10;;;19.40;99.90;;;;;;5021198;28;20033;-72
2023/09/10 01:13:01;;;;;;;12.93;7.85;;;19.40;99.90;;;;;;5038276;28;20049;-73
2023/09/10 01:15:52;;;;;;;9.65;6.68;;;19.30;99.90;;;;;;5046206;28;20060;-72
2023/09/10 01:18:48;;;;;;;13.57;6.78;;;19.30;99.90;;;;;;5026024;28;20044;-72
2023/09/10 01:21:57;;;;;;;10.27;6.45;;;19.30;99.90;;;;;;5018615;28;20056;-72
2023/09/10 01:24:50;;;;;;;11.18;6.10;;;19.30;99.90;;;;;;5024451;28;20106;-73
2023/09/10 01:27:36;;;;;;;12.60;6.60;;;19.20;99.90;;;;;;5033273;28;20037;-72
2023/09/10 01:30:22;;;;;;;10.55;6.00;;;19.20;99.90;;;;;;5042375;28;20037;-72
2023/09/10 01:33:36;;;;;;;8.50;6.40;;;19.30;99.90;;;;;;5019668;28;20056;-73
2023/09/10 01:36:40;;;;;;;10.85;5.82;;;19.20;99.90;;;;;;5027218;28;20056;-72
2023/09/10 01:39:36;;;;;;;8.38;5.90;;;19.20;99.90;;;;;;5047324;28;20088;-72
2023/09/10 01:42:23;;;;;;;9.85;6.53;;;19.20;99.90;;;;;;5038485;28;20041;-72
2023/09/10 01:45:10;;;;;;;10.93;6.50;;;19.20;99.90;;;;;;5019403;28;20056;-72
2023/09/10 01:47:56;;;;;;;9.43;6.07;;;19.20;99.90;;;;;;5035504;28;20052;-72
2023/09/10 01:50:43;;;;;;;9.13;6.30;;;19.20;99.90;;;;;;5043176;28;20398;-72
2023/09/10 01:53:29;;;;;;;7.68;6.05;;;19.10;99.90;;;;;;5035761;28;20567;-73
2023/09/10 01:56:15;;;;;;;9.13;6.25;;;19.00;99.90;;;;;;5024701;28;20045;-72
2023/09/10 01:59:01;;;;;;;10.63;6.07;;;19.00;99.90;;;;;;5032386;28;20343;-72
2023/09/10 02:01:47;;;;;;;9.00;6.18;;;19.00;99.90;;;;;;5022327;28;20041;-72
2023/09/10 02:04:33;;;;;;;9.98;6.18;;;18.90;99.90;;;;;;5045650;28;20037;-72
2023/09/10 02:07:19;;;;;;;14.43;7.05;;;18.90;99.90;;;;;;5044159;28;20044;-72
2023/09/10 02:10:06;;;;;;;11.05;6.35;;;18.80;99.90;;;;;;5030060;28;20041;-74
2023/09/10 02:12:52;;;;;;;8.82;5.90;;;18.80;99.90;;;;;;5037873;28;20055;-72
2023/09/10 02:15:39;;;;;;;8.35;6.32;;;18.80;99.90;;;;;;5044413;28;20773;-72
2023/09/10 02:18:27;;;;;;;9.45;5.88;;;18.80;99.90;;;;;;5017285;28;20124;-73
2023/09/10 02:21:13;;;;;;;8.15;6.50;;;18.80;99.90;;;;;;5022166;28;20449;-73
2023/09/10 02:24:00;;;;;;;9.38;6.28;;;18.80;99.90;;;;;;5047012;28;20103;-72
2023/09/10 02:26:46;;;;;;;10.38;6.43;;;18.80;99.90;;;;;;5007502;28;20493;-72
2023/09/10 02:29:32;;;;;;;10.63;6.30;;;18.70;99.90;;;;;;5029356;28;20045;-72
2023/09/10 02:32:17;;;;;;;8.85;6.03;;;18.80;99.90;;;;;;5022560;28;20041;-72
2023/09/10 02:35:04;;;;;;;8.55;6.07;;;18.80;99.90;;;;;;5032130;28;20042;-72
2023/09/10 02:37:50;;;;;;;9.70;6.20;;;18.70;99.90;;;;;;5016994;28;20653;-72
2023/09/10 02:40:36;;;;;;;8.38;5.65;;;18.70;99.90;;;;;;5038101;28;20414;-72
2023/09/10 02:43:22;;;;;;;10.27;5.60;;;18.70;99.90;;;;;;5043621;28;20051;-72
2023/09/10 02:46:08;;;;;;;8.30;5.90;;;18.70;99.90;;;;;;5052433;28;20040;-72
2023/09/10 02:48:54;;;;;;;8.68;6.10;;;18.70;99.90;;;;;;5039823;28;20114;-72
2023/09/10 02:51:40;;;;;;;7.55;6.05;;;18.70;99.90;;;;;;5045261;28;20051;-72
2023/09/10 02:54:26;;;;;;;7.78;5.97;;;18.70;99.90;;;;;;5036091;28;20084;-72
2023/09/10 02:57:12;;;;;;;8.38;6.47;;;18.60;99.90;;;;;;5009613;28;20100;-73
2023/09/10 02:59:58;;;;;;;9.35;6.10;;;18.60;99.90;;;;;;5035312;28;20044;-72
2023/09/10 03:02:44;;;;;;;10.02;6.70;;;18.50;99.90;;;;;;5034106;28;20470;-72
2023/09/10 03:05:33;;;;;;;9.68;6.38;;;18.50;99.90;;;;;;5024168;28;20043;-72
2023/09/10 03:08:19;;;;;;;8.73;6.03;;;18.50;99.90;;;;;;5034580;28;20041;-72
2023/09/10 03:11:05;;;;;;;9.57;6.85;;;18.50;99.90;;;;;;5020257;28;20037;-72
2023/09/10 03:13:51;;;;;;;8.90;5.70;;;18.50;99.90;;;;;;5022073;28;20060;-73
2023/09/10 03:16:40;;;;;;;10.18;6.20;;;18.40;99.90;;;;;;5039357;28;20052;-73
2023/09/10 03:19:26;;;;;;;8.32;6.00;;;18.40;99.90;;;;;;5042930;28;20116;-73
2023/09/10 03:22:12;;;;;;;10.13;6.30;;;18.30;99.90;;;;;;5040731;28;20094;-73
2023/09/10 03:24:59;;;;;;;8.95;6.63;;;18.30;99.90;;;;;;5019597;28;20075;-73
2023/09/10 03:27:45;;;;;;;9.75;5.85;;;18.30;99.90;;;;;;5039803;28;20830;-73
2023/09/10 03:30:31;;;;;;;9.45;6.10;;;18.30;99.90;;;;;;5043337;28;20079;-72
2023/09/10 03:33:17;;;;;;;7.93;6.13;;;18.40;99.90;;;;;;5020866;28;20080;-72
2023/09/10 03:36:03;;;;;;;7.60;5.65;;;18.30;99.90;;;;;;5022107;28;20053;-72
2023/09/10 03:38:49;;;;;;;9.30;5.97;;;18.30;99.90;;;;;;5033918;28;20061;-72
2023/09/10 03:41:35;;;;;;;8.90;6.22;;;18.30;99.90;;;;;;5038707;28;20381;-72
2023/09/10 03:44:21;;;;;;;11.68;6.80;;;18.20;99.90;;;;;;5039301;28;20091;-72
2023/09/10 03:47:07;;;;;;;8.50;6.40;;;18.20;99.90;;;;;;5034930;28;20041;-72
2023/09/10 03:49:55;;;;;;;9.27;6.70;;;18.10;99.90;;;;;;5017458;28;20347;-72
2023/09/10 03:52:40;;;;;;;11.60;7.07;;;18.00;99.90;;;;;;5046154;28;20041;-72
2023/09/10 03:55:26;;;;;;;8.13;6.97;;;18.00;99.90;;;;;;5032958;28;20047;-73
2023/09/10 03:58:12;;;;;;;10.40;6.65;;;17.90;99.90;;;;;;5029111;28;20069;-72
2023/09/10 04:00:58;;;;;;;9.43;6.28;;;17.90;99.90;;;;;;5047797;28;20041;-72
2023/09/10 04:03:44;;;;;;;9.57;6.65;;;17.80;99.90;;;;;;5021735;28;20049;-72
2023/09/10 04:06:30;;;;;;;9.32;6.55;;;17.80;99.90;;;;;;5032556;28;20037;-72
2023/09/10 04:09:16;;;;;;;9.05;6.60;;;17.80;99.90;;;;;;5039617;28;20060;-72
2023/09/10 04:12:03;;;;;;;7.82;6.00;;;17.80;99.90;;;;;;5040296;28;20127;-72
2023/09/10 04:14:48;;;;;;;8.70;6.90;;;17.80;99.90;;;;;;5050660;28;20041;-72
2023/09/10 04:17:34;;;;;;;11.60;6.63;;;17.80;99.90;;;;;;5036452;28;20033;-72
2023/09/10 04:20:21;;;;;;;9.07;6.40;;;17.90;99.90;;;;;;5034329;28;20049;-72
2023/09/10 04:23:07;;;;;;;9.60;6.55;;;17.90;99.90;;;;;;5031001;28;20052;-72
2023/09/10 04:25:52;;;;;;;8.07;6.30;;;17.90;99.90;;;;;;5024344;28;20052;-72
2023/09/10 04:28:39;;;;;;;10.88;6.63;;;17.90;99.90;;;;;;5048339;28;20540;-72
2023/09/10 04:31:25;;;;;;;10.82;6.43;;;17.90;99.90;;;;;;5017905;28;20044;-72
2023/09/10 04:34:11;;;;;;;10.40;6.50;;;17.90;99.90;;;;;;5032713;28;20057;-72
2023/09/10 04:36:57;;;;;;;9.07;6.03;;;18.00;99.90;;;;;;5030951;28;20148;-72
2023/09/10 04:39:43;;;;;;;11.02;6.00;;;17.90;99.90;;;;;;5035238;28;20041;-72
2023/09/10 04:42:29;;;;;;;8.27;6.20;;;17.90;99.90;;;;;;5040085;28;20776;-72
2023/09/10 04:45:15;;;;;;;9.98;6.45;;;17.90;99.90;;;;;;5025759;28;20043;-72
2023/09/10 04:48:02;;;;;;;8.25;6.30;;;17.80;99.90;;;;;;5016856;28;20049;-72
2023/09/10 04:50:48;;;;;;;8.52;6.28;;;17.90;99.90;;;;;;5019094;28;20045;-72
2023/09/10 04:53:35;;;;;;;10.35;6.18;;;17.80;99.90;;;;;;5046191;28;20615;-72
2023/09/10 04:56:21;;;;;;;8.82;6.07;;;17.90;99.90;;;;;;5031882;28;20038;-72
2023/09/10 04:59:07;;;;;;;9.30;6.03;;;17.80;99.90;;;;;;5017825;28;20080;-72
2023/09/10 05:01:53;;;;;;;10.48;6.60;;;17.80;99.90;;;;;;5036668;28;20111;-72
2023/09/10 05:04:39;;;;;;;8.50;6.43;;;17.80;99.90;;;;;;5020550;28;20044;-72
2023/09/10 05:07:25;;;;;;;9.57;6.45;;;17.70;99.90;;;;;;5043265;28;20408;-72
2023/09/10 05:10:11;;;;;;;12.35;6.55;;;17.70;99.90;;;;;;5044903;28;20045;-72
2023/09/10 05:12:57;;;;;;;10.15;6.28;;;17.70;99.90;;;;;;5031336;28;20166;-72
2023/09/10 05:15:47;;;;;;;11.93;6.35;;;17.70;99.90;;;;;;5044786;28;20040;-72
2023/09/10 05:18:33;;;;;;;9.73;6.40;;;17.70;99.90;;;;;;5023305;28;20068;-72
2023/09/10 05:21:20;;;;;;;12.63;6.97;;;17.70;99.90;;;;;;5030260;28;20076;-72
2023/09/10 05:24:07;;;;;;;10.38;6.63;;;17.70;99.90;;;;;;5020163;28;20045;-72
2023/09/10 05:26:52;;;;;;;7.32;6.20;;;17.70;99.90;;;;;;5039836;28;20045;-72
2023/09/10 05:29:38;;;;;;;12.63;6.68;;;17.70;99.90;;;;;;5028081;28;20480;-72
2023/09/10 05:32:26;;;;;;;8.43;6.45;;;17.70;99.90;;;;;;5024134;28;20612;-73
2023/09/10 05:35:12;;;;;;;10.15;6.53;;;17.70;99.90;;;;;;5021228;28;20043;-72
2023/09/10 05:37:58;;;;;;;9.52;6.32;;;17.60;99.90;;;;;;5015951;28;20080;-71
2023/09/10 05:40:44;;;;;;;8.02;6.88;;;17.70;99.90;;;;;;5017257;28;20037;-70
2023/09/10 05:43:30;;;;;;;9.85;6.93;;;17.70;99.90;;;;;;5014143;28;20064;-71
2023/09/10 05:46:17;;;;;;;10.23;6.50;;;17.60;99.90;;;;;;5030891;28;20049;-70
2023/09/10 05:49:03;;;;;;;11.75;7.07;;;17.60;99.90;;;;;;5036260;28;20106;-71
2023/09/10 05:51:49;;;;;;;10.07;6.75;;;17.60;99.90;;;;;;5036733;28;20073;-71
2023/09/10 05:54:35;;;;;;;10.48;7.03;;;17.60;99.90;;;;;;5032457;28;20046;-71
2023/09/10 05:57:21;;;;;;;11.23;6.80;;;17.60;99.90;;;;;;5031141;28;20065;-74
2023/09/10 06:00:07;;;;;;;10.98;6.88;;;17.60;99.90;;;;;;5031728;28;20033;-72
2023/09/10 06:02:55;;;;;;;11.00;7.10;;;17.70;99.90;;;;;;5039834;28;20036;-72
2023/09/10 06:05:41;;;;;;;12.68;8.05;;;17.60;99.90;;;;;;5030538;28;20041;-72
2023/09/10 06:08:29;;;;;;;9.57;6.65;;;17.70;99.90;;;;;;5045521;28;20037;-73
2023/09/10 06:11:16;;;;;;;;;;;17.80;99.90;;;;;;5017608;28;20128;-72
2023/09/10 06:14:02;;;;;;;10.13;7.17;;;17.80;99.90;;;;;;5040317;28;20341;-72
2023/09/10 06:16:48;;;;;;;8.77;6.85;;;17.90;99.90;;;;;;5034684;28;20041;-72
2023/09/10 06:19:34;;;;;;;10.63;6.82;;;18.00;99.90;;;;;;5029247;28;20037;-73
2023/09/10 06:22:20;;;;;;;8.88;6.75;;;18.00;99.90;;;;;;5037702;28;20057;-73
2023/09/10 06:25:07;;;;;;;9.43;6.22;;;18.10;99.90;;;;;;5015278;28;20051;-72
2023/09/10 06:27:53;;;;;;;11.63;7.00;;;18.10;99.90;;;;;;5024026;28;20041;-74
2023/09/10 06:30:41;;;;;;;10.63;6.63;;;18.20;99.90;;;;;;5030587;28;20041;-73
2023/09/10 06:33:27;;;;;;;;;;;18.30;99.90;;;;;;5032935;28;20142;-72
2023/09/10 06:36:13;;;;;;;11.68;7.82;;;18.30;99.90;;;;;;5037462;28;19940;-74
2023/09/10 06:38:59;;;;;;;10.57;6.38;;;18.40;99.90;;;;;;5035547;28;20051;-74
2023/09/10 06:41:46;;;;;;;9.00;6.88;;;18.40;99.90;;;;;;5024770;28;20428;-73
2023/09/10 06:44:32;;;;;;;10.10;5.88;;;18.50;99.90;;;;;;5043170;28;20040;-73
2023/09/10 06:47:18;;;;;;;8.93;6.55;;;18.60;99.90;;;;;;5027066;28;20038;-73
2023/09/10 06:50:04;;;;;;;8.05;6.18;;;18.70;99.90;;;;;;5028301;28;20056;-73
2023/09/10 06:52:50;;;;;;;12.10;6.97;;;18.70;99.90;;;;;;5020683;28;20038;-73
2023/09/10 06:55:36;;;;;;;9.57;7.90;;;18.80;99.90;;;;;;5035469;28;20151;-73
2023/09/10 06:58:22;;;;;;;17.92;10.15;;;18.90;99.90;;;;;;5032193;28;20112;-72
2023/09/10 07:01:08;;;;;;;20.50;13.65;;;19.00;99.90;;;;;;5032768;28;20143;-73
2023/09/10 07:03:57;;;;;;;25.30;18.40;;;19.20;99.90;;;;;;5034934;28;20603;-73
2023/09/10 07:06:47;;;;;;;24.30;20.00;;;19.30;99.90;;;;;;5024620;28;20045;-73
2023/09/10 07:09:33;;;;;;;30.60;23.52;;;19.40;99.90;;;;;;5037046;28;20529;-73
2023/09/10 07:12:19;;;;;;;30.73;23.80;;;19.50;99.90;;;;;;5026912;28;20041;-74
2023/09/10 07:15:06;;;;;;;30.20;24.20;;;19.60;99.90;;;;;;5024126;28;20868;-72
2023/09/10 07:17:52;;;;;;;34.15;26.70;;;19.70;99.90;;;;;;5019058;28;20112;-73
2023/09/10 07:20:38;;;;;;;34.85;27.10;;;19.70;99.90;;;;;;5032449;28;20136;-72
2023/09/10 07:23:24;;;;;;;43.33;30.83;;;19.80;99.90;;;;;;5019873;28;20146;-73
2023/09/10 07:26:10;;;;;;;33.80;26.33;;;19.80;99.90;;;;;;5043356;28;20038;-73
2023/09/10 07:28:56;;;;;;;38.60;28.52;;;19.90;99.90;;;;;;5033741;28;20045;-73
2023/09/10 07:31:43;;;;;;;39.38;29.95;;;19.90;99.90;;;;;;5032671;28;20049;-72
2023/09/10 07:34:28;;;;;;;42.17;27.67;;;20.00;99.90;;;;;;5022610;28;20100;-73
2023/09/10 07:37:14;;;;;;;37.17;28.58;;;20.20;99.90;;;;;;5032954;28;20505;-72
2023/09/10 07:40:00;;;;;;;36.40;28.42;;;20.20;99.90;;;;;;5046852;28;20072;-73
2023/09/10 07:42:46;;;;;;;36.90;28.73;;;20.30;99.90;;;;;;5045533;28;20123;-73
2023/09/10 07:45:32;;;;;;;41.45;31.23;;;20.30;99.90;;;;;;5032466;28;20048;-72
2023/09/10 07:48:18;;;;;;;38.72;30.88;;;20.40;99.90;;;;;;5032240;28;20041;-74
2023/09/10 07:51:05;;;;;;;33.00;28.60;;;20.50;99.90;;;;;;5032904;28;20045;-72
2023/09/10 07:53:51;;;;;;;37.05;31.38;;;20.60;99.90;;;;;;5018677;28;20038;-73
2023/09/10 07:56:37;;;;;;;35.30;29.30;;;20.70;99.90;;;;;;5032535;28;20405;-73
2023/09/10 07:59:23;;;;;;;33.38;28.60;;;20.70;99.90;;;;;;5018007;28;20045;-73
2023/09/10 08:02:09;;;;;;;37.55;31.50;;;20.80;99.90;;;;;;5024789;28;20049;-73
2023/09/10 08:04:55;;;;;;;35.83;29.13;;;20.90;99.90;;;;;;5031447;28;20045;-74
2023/09/10 08:07:41;;;;;;;34.70;29.17;;;21.00;99.90;;;;;;5033255;28;20120;-73
2023/09/10 08:10:29;;;;;;;30.63;26.58;;;21.10;99.90;;;;;;5046520;28;20029;-73
2023/09/10 08:13:15;;;;;;;;;;;21.20;99.90;;;;;;5034317;28;20555;-74
2023/09/10 08:16:01;;;;;;;28.15;24.55;;;21.20;99.90;;;;;;5032568;28;19928;-72
2023/09/10 08:18:47;;;;;;;28.98;24.60;;;21.30;99.90;;;;;;5019859;28;20041;-73
2023/09/10 08:21:33;;;;;;;27.83;21.83;;;21.40;99.90;;;;;;5031365;28;20052;-73
2023/09/10 08:24:21;;;;;;;28.73;22.25;;;21.50;99.90;;;;;;5045178;28;20088;-72
2023/09/10 08:27:10;;;;;;;;;;;21.60;99.90;;;;;;5039241;28;20156;-72
2023/09/10 08:29:56;;;;;;;28.73;22.67;;;21.70;99.90;;;;;;5023597;28;19967;-72
2023/09/10 08:32:45;;;;;;;24.60;20.88;;;21.70;99.90;;;;;;5018204;28;20041;-73
2023/09/10 08:35:50;;;;;;;27.42;20.58;;;21.80;99.90;;;;;;5029656;28;20040;-73
2023/09/10 08:38:36;;;;;;;23.42;19.50;;;21.90;99.90;;;;;;5033162;28;20044;-73
2023/09/10 08:41:58;;;;;;;22.77;19.30;;;22.00;99.90;;;;;;5022623;28;20038;-73
2023/09/10 08:44:43;;;;;;;21.48;18.13;;;22.10;99.90;;;;;;5020399;28;20040;-74
2023/09/10 08:47:30;;;;;;;22.30;16.75;;;22.10;99.90;;;;;;5025444;28;20041;-75
2023/09/10 08:50:16;;;;;;;24.80;18.50;;;22.20;99.90;;;;;;5031281;28;20141;-74
2023/09/10 08:53:03;;;;;;;18.90;16.73;;;22.30;99.90;;;;;;5045125;28;20609;-74
2023/09/10 08:55:49;;;;;;;23.75;17.90;;;22.40;99.90;;;;;;5047097;28;20643;-74
2023/09/10 08:58:37;;;;;;;21.40;17.70;;;22.50;99.90;;;;;;5034409;28;20041;-74
2023/09/10 09:01:23;;;;;;;20.63;18.42;;;22.60;99.90;;;;;;5035834;28;20036;-74
2023/09/10 09:04:10;;;;;;;19.85;16.77;;;22.70;99.90;;;;;;5033658;28;20045;-74
2023/09/10 09:06:56;;;;;;;18.90;16.13;;;22.80;99.90;;;;;;5025524;28;20516;-74
2023/09/10 09:09:42;;;;;;;25.80;19.33;;;22.80;99.90;;;;;;5033447;28;20049;-74
2023/09/10 09:12:28;;;;;;;20.73;16.65;;;23.00;99.90;;;;;;5041287;28;20048;-74
2023/09/10 09:15:14;;;;;;;20.90;16.70;;;23.00;99.90;;;;;;5044187;28;20043;-74
2023/09/10 09:18:00;;;;;;;28.60;16.45;;;23.10;99.90;;;;;;5028019;28;20116;-74
2023/09/10 09:20:47;;;;;;;19.27;15.95;;;23.20;99.90;;;;;;5027341;28;20049;-74
2023/09/10 09:23:37;;;;;;;18.65;14.90;;;23.30;99.90;;;;;;5030043;28;20106;-74
2023/09/10 09:26:23;;;;;;;19.40;14.77;;;23.30;99.90;;;;;;5028518;28;20118;-74
2023/09/10 09:29:09;;;;;;;20.30;15.57;;;23.40;99.90;;;;;;5020809;28;20037;-75
2023/09/10 09:31:55;;;;;;;16.83;13.05;;;23.40;99.90;;;;;;5035039;28;20512;-74
2023/09/10 09:34:41;;;;;;;15.65;12.80;;;23.60;99.90;;;;;;5026103;28;20068;-74
2023/09/10 09:37:27;;;;;;;14.90;12.38;;;23.80;99.90;;;;;;5016752;28;20038;-75
2023/09/10 09:40:14;;;;;;;18.58;13.95;;;23.80;99.90;;;;;;5022138;28;20090;-74
2023/09/10 09:43:01;;;;;;;18.05;13.55;;;23.90;99.90;;;;;;5020120;28;20048;-74
2023/09/10 09:45:47;;;;;;;15.83;12.23;;;24.00;99.90;;;;;;5043452;28;20088;-74
2023/09/10 09:48:34;;;;;;;18.77;11.80;;;24.10;99.90;;;;;;5027097;28;20276;-74
2023/09/10 09:51:21;;;;;;;19.17;13.48;;;24.30;99.90;;;;;;5042442;28;20041;-74
2023/09/10 09:54:07;;;;;;;17.60;12.68;;;24.40;99.90;;;;;;5034747;28;20052;-74
2023/09/10 09:56:53;;;;;;;18.42;12.68;;;24.50;99.90;;;;;;5032398;28;20049;-74
2023/09/10 09:59:39;;;;;;;13.43;11.70;;;24.70;99.90;;;;;;5030400;28;20052;-74
2023/09/10 10:02:25;;;;;;;17.85;13.45;;;24.90;99.90;;;;;;5032537;28;20062;-74
2023/09/10 10:05:11;;;;;;;16.90;12.40;;;24.90;99.90;;;;;;5027701;28;20046;-74
2023/09/10 10:07:58;;;;;;;13.50;11.77;;;25.00;99.90;;;;;;5043181;28;20037;-74
2023/09/10 10:10:48;;;;;;;15.20;12.32;;;25.10;99.90;;;;;;5048235;28;20139;-75
2023/09/10 10:13:34;;;;;;;18.40;12.55;;;25.20;99.90;;;;;;5039908;28;20036;-75
2023/09/10 10:16:20;;;;;;;21.20;11.63;;;25.30;99.90;;;;;;5033277;28;20111;-74
2023/09/10 10:19:06;;;;;;;13.50;10.88;;;25.40;99.90;;;;;;5021852;28;20342;-74
2023/09/10 10:21:52;;;;;;;16.63;11.88;;;25.40;99.90;;;;;;5034610;28;20059;-74
2023/09/10 10:24:38;;;;;;;15.10;13.07;;;25.60;99.90;;;;;;5016432;28;20056;-74
2023/09/10 10:27:24;;;;;;;21.20;12.85;;;25.70;99.90;;;;;;5030285;28;20156;-74
2023/09/10 10:30:11;;;;;;;23.98;12.75;;;25.80;99.90;;;;;;5033854;28;20049;-74
2023/09/10 10:32:57;;;;;;;18.75;13.40;;;25.70;99.90;;;;;;5030504;28;20033;-75
2023/09/10 10:35:50;;;;;;;18.05;12.52;;;25.90;99.90;;;;;;5033422;28;20041;-74
2023/09/10 10:38:40;;;;;;;17.38;13.07;;;26.00;99.50;;;;;;5038912;28;20044;-74
2023/09/10 10:41:28;;;;;;;16.77;12.88;;;26.10;99.60;;;;;;5024855;28;20041;-76
2023/09/10 10:44:21;;;;;;;13.85;10.30;;;26.20;98.90;;;;;;5035880;28;20036;-74
2023/09/10 10:47:18;;;;;;;14.82;12.45;;;26.30;98.90;;;;;;5036073;28;20045;-75
2023/09/10 10:50:05;;;;;;;19.00;13.40;;;26.40;98.60;;;;;;5016635;28;20771;-74
2023/09/10 10:53:19;;;;;;;16.77;11.98;;;26.40;98.80;;;;;;5022164;28;20041;-74
2023/09/10 10:56:05;;;;;;;16.25;12.05;;;26.60;98.70;;;;;;5047217;28;20061;-76
2023/09/10 10:58:51;;;;;;;14.30;10.40;;;26.70;98.00;;;;;;5038162;28;20042;-74
2023/09/10 11:01:39;;;;;;;15.55;11.98;;;26.80;98.20;;;;;;5034899;28;20081;-74
2023/09/10 11:04:25;;;;;;;14.85;10.60;;;26.90;97.70;;;;;;5016160;28;20071;-75
2023/09/10 11:07:18;;;;;;;12.75;11.02;;;27.00;98.10;;;;;;5032188;28;20384;-74
2023/09/10 11:10:26;;;;;;;12.82;9.23;;;27.00;97.20;;;;;;5046071;28;20625;-74
2023/09/10 11:13:13;;;;;;;13.40;9.73;;;27.20;97.60;;;;;;5046276;28;20066;-74
2023/09/10 11:16:14;;;;;;;15.65;10.68;;;27.20;97.30;;;;;;5033576;28;20492;-74
2023/09/10 11:19:00;;;;;;;15.32;10.05;;;27.40;97.20;;;;;;5033064;28;20049;-75
2023/09/10 11:21:56;;;;;;;16.90;11.07;;;27.50;97.00;;;;;;5032299;28;20057;-75
2023/09/10 11:24:41;;;;;;;17.00;10.60;;;27.50;96.40;;;;;;5041492;28;20052;-74
2023/09/10 11:27:27;;;;;;;16.17;9.02;;;27.60;96.40;;;;;;5030102;28;20144;-74
2023/09/10 11:30:14;;;;;;;13.63;9.32;;;27.70;96.60;;;;;;5033581;28;20037;-75
2023/09/10 11:33:33;;;;;;;14.23;9.93;;;27.80;96.30;;;;;;5031789;28;20438;-75
2023/09/10 11:36:19;;;;;;;13.02;8.88;;;27.80;96.10;;;;;;5048416;28;20565;-74
2023/09/10 11:39:08;;;;;;;15.23;9.82;;;27.80;96.30;;;;;;5021851;28;20042;-76
2023/09/10 11:41:54;;;;;;;13.65;9.57;;;28.00;96.50;;;;;;5032670;28;20038;-75
2023/09/10 11:44:40;;;;;;;12.73;9.27;;;28.10;95.70;;;;;;5041714;28;20045;-74
2023/09/10 11:47:26;;;;;;;14.70;8.93;;;28.00;95.40;;;;;;5041915;28;20178;-74
2023/09/10 11:50:13;;;;;;;17.90;9.85;;;28.20;95.40;;;;;;5047191;28;20033;-75
2023/09/10 11:52:59;;;;;;;11.20;9.02;;;28.20;95.20;;;;;;5036004;28;20053;-75
2023/09/10 11:55:45;;;;;;;11.60;7.95;;;28.20;95.20;;;;;;5032220;28;20144;-74
2023/09/10 11:58:31;;;;;;;16.67;9.02;;;28.30;95.40;;;;;;5019260;28;20084;-75
2023/09/10 12:01:17;;;;;;;13.10;8.05;;;28.40;94.90;;;;;;5033449;28;20041;-75
2023/09/10 12:04:03;;;;;;;19.35;8.75;;;28.40;94.80;;;;;;5046573;28;20462;-75
2023/09/10 12:06:49;;;;;;;14.75;9.27;;;28.50;94.80;;;;;;5017679;28;20047;-74
2023/09/10 12:09:35;;;;;;;13.98;9.68;;;28.50;94.60;;;;;;5039239;28;20056;-75
2023/09/10 12:12:24;;;;;;;18.63;9.02;;;28.50;94.50;;;;;;5046553;28;20072;-75
2023/09/10 12:15:10;;;;;;;15.77;8.40;;;28.60;94.50;;;;;;5037405;28;20041;-74
2023/09/10 12:17:56;;;;;;;16.48;8.73;;;28.70;94.30;;;;;;5043034;28;20044;-76
2023/09/10 12:20:42;;;;;;;12.25;7.93;;;28.90;94.20;;;;;;5005457;28;20057;-74
2023/09/10 12:23:28;;;;;;;13.77;8.23;;;28.90;93.60;;;;;;5032586;28;20106;-75
2023/09/10 12:26:14;;;;;;;12.88;8.68;;;29.10;93.70;;;;;;5018154;28;20365;-73
2023/09/10 12:29:00;;;;;;;14.30;8.80;;;29.10;93.60;;;;;;5036019;28;20059;-74
2023/09/10 12:31:46;;;;;;;10.63;7.53;;;29.10;93.20;;;;;;5032543;28;20045;-74
2023/09/10 12:34:32;;;;;;;12.27;8.15;;;29.30;93.40;;;;;;5022749;28;20072;-73
2023/09/10 12:37:18;;;;;;;12.10;7.68;;;29.40;93.20;;;;;;5012661;28;20670;-74
2023/09/10 12:40:04;;;;;;;12.95;8.45;;;29.50;93.70;;;;;;5019178;28;20033;-73
2023/09/10 12:42:50;;;;;;;13.93;8.82;;;29.60;92.50;;;;;;5038419;28;20040;-73
2023/09/10 12:45:36;;;;;;;17.13;8.40;;;29.50;92.30;;;;;;5035748;28;20080;-75
2023/09/10 12:48:22;;;;;;;13.07;8.68;;;29.70;92.50;;;;;;5031266;28;20052;-74
2023/09/10 12:51:08;;;;;;;11.73;8.57;;;29.80;92.30;;;;;;5045541;28;20041;-75
2023/09/10 12:53:54;;;;;;;13.35;9.18;;;29.90;92.50;;;;;;5033309;28;20175;-74
2023/09/10 12:56:43;;;;;;;8.25;7.20;;;30.10;92.30;;;;;;5022975;28;20033;-74
2023/09/10 12:59:29;;;;;;;13.18;8.50;;;30.30;91.80;;;;;;5022932;28;20037;-75
2023/09/10 13:02:15;;;;;;;13.15;8.90;;;30.40;91.80;;;;;;5013292;28;20382;-74
2023/09/10 13:05:01;;;;;;;12.60;8.50;;;30.20;90.90;;;;;;5020030;28;20037;-74
2023/09/10 13:07:48;;;;;;;13.25;7.80;;;30.50;91.20;;;;;;5026214;28;20487;-74
2023/09/10 13:10:34;;;;;;;12.33;7.83;;;30.70;90.60;;;;;;5031493;28;20126;-74
2023/09/10 13:13:20;;;;;;;13.52;7.88;;;31.20;90.80;;;;;;5033175;28;20055;-74
2023/09/10 13:16:06;;;;;;;13.63;8.05;;;31.50;90.40;;;;;;5029038;28;20463;-74
2023/09/10 13:18:52;;;;;;;16.10;7.90;;;31.90;90.40;;;;;;5010203;28;20041;-74
2023/09/10 13:21:38;;;;;;;9.88;7.55;;;32.20;89.00;;;;;;5039436;28;20060;-74
2023/09/10 13:24:24;;;;;;;12.57;8.88;;;31.90;88.10;;;;;;5022048;28;20051;-74
2023/09/10 13:27:10;;;;;;;11.23;7.68;;;31.70;87.30;;;;;;5037519;28;20132;-73
2023/09/10 13:29:56;;;;;;;12.52;7.68;;;32.00;87.50;;;;;;5040008;28;20055;-74
2023/09/10 13:32:42;;;;;;;16.00;8.20;;;31.90;87.30;;;;;;5041641;28;20041;-74
2023/09/10 13:35:30;;;;;;;11.82;8.05;;;32.10;86.90;;;;;;5038880;28;20657;-74
2023/09/10 13:38:16;;;;;;;11.23;7.10;;;32.10;86.80;;;;;;5029065;28;20488;-73
2023/09/10 13:41:02;;;;;;;12.60;7.10;;;32.60;88.30;;;;;;5035828;28;20037;-74
2023/09/10 13:43:48;;;;;;;13.45;8.82;;;32.90;84.80;;;;;;5038757;28;20045;-74
2023/09/10 13:46:34;;;;;;;13.13;8.38;;;32.90;84.70;;;;;;5032903;28;20386;-72
2023/09/10 13:49:23;;;;;;;11.20;6.90;;;32.50;83.90;;;;;;5040980;28;20049;-72
2023/09/10 13:52:11;;;;;;;12.32;7.53;;;32.80;85.50;;;;;;5042918;28;20524;-72
2023/09/10 13:54:56;;;;;;;14.73;7.28;;;33.30;85.00;;;;;;5019798;28;20133;-72
2023/09/10 13:57:42;;;;;;;12.98;7.18;;;33.20;83.00;;;;;;5038387;28;20041;-72
2023/09/10 14:00:28;;;;;;;12.25;6.57;;;32.70;82.10;;;;;;5027586;28;20052;-72
2023/09/10 14:03:14;;;;;;;11.40;7.72;;;32.40;82.30;;;;;;5034871;28;20047;-72
2023/09/10 14:06:00;;;;;;;22.00;7.38;;;32.60;82.00;;;;;;5008186;28;20037;-72
2023/09/10 14:08:46;;;;;;;12.63;7.15;;;32.50;81.60;;;;;;5051382;28;20489;-72
2023/09/10 14:11:32;;;;;;;12.80;6.70;;;32.70;81.40;;;;;;5020284;28;20037;-73
2023/09/10 14:14:18;;;;;;;11.75;6.82;;;33.20;81.60;;;;;;5047710;28;20549;-72
2023/09/10 14:17:04;;;;;;;10.85;6.57;;;33.40;81.00;;;;;;5032895;28;20087;-75
2023/09/10 14:19:50;;;;;;;14.43;7.13;;;33.40;80.50;;;;;;5020653;28;20441;-73